Caribbean Ferry — WDD3415 — position and weather

sailwx.info

Track history (hours):
 
Tides and Currents Weather Stations Pressure Air Temp Water Temp Dewpoint Dewpoint Depression Visibility Wind Speed Wind Dir Waves Ship Positions

Caribbean Ferry

Owner: Cross Sound Ferry Services,Inc., New London, CT. More information available from US FCC via Universal Licensing System and Coast Guard Vessel Documentation Center.

Last reported at 2018-Jun-17 20:53 UTC. Time now 2018-Jun-18 11:30 UTC.
Position N 41°10' W 072°13'.

Length 36 m; draft 1.8 m.

Type: Passenger vessel. MMSI: 367130960.

Date/timePositionNaut miles runAvg speedWind from/ knotsBaromVisibWave heightAir tempDewpointWater temp
2018-Jun-17 20:53N 41°10' W 072°13'4 9.5
2018-Jun-17 20:26N 41°13' W 072°11'2 0.6
2018-Jun-17 17:49N 41°12' W 072°12'3 2.4
2018-Jun-17 16:43N 41°10' W 072°13'210.0
2018-Jun-17 16:29N 41°12' W 072°13'0 0.1
2018-Jun-17 12:36N 41°12' W 072°13'3 0.2
2018-Jun-16 22:02N 41°14' W 072°09'113.8
2018-Jun-16 22:00N 41°13' W 072°10'2 1.9
2018-Jun-16 20:42N 41°11' W 072°12'2 8.6
2018-Jun-16 20:27N 41°13' W 072°10'1 0.4
2018-Jun-16 18:06N 41°14' W 072°09'4 3.1
2018-Jun-16 16:41N 41°11' W 072°13'210.8
2018-Jun-16 16:30N 41°12' W 072°12'1 0.2
2018-Jun-16 12:37N 41°12' W 072°12'110.6
2018-Jun-16 12:30N 41°13' W 072°12'1 0.1
2018-Jun-15 20:41N 41°12' W 072°13'2 8.9
2018-Jun-15 20:26N 41°13' W 072°11'1 0.2
2018-Jun-15 12:27N 41°12' W 072°12'1 0.0
2018-Jun-14 20:40N 41°12' W 072°12'2 9.0
2018-Jun-14 20:25N 41°13' W 072°10'2 0.6
2018-Jun-14 16:35N 41°12' W 072°12'210.7
2018-Jun-14 16:24N 41°13' W 072°11'2 0.4
2018-Jun-14 12:30N 41°12' W 072°12'  
2018-Jun-10 20:19N 41°12' W 072°12'1 0.1
2018-Jun-10 12:29N 41°13' W 072°12'  
Track history (hours):
 
Tides and Currents Weather Stations Pressure Air Temp Water Temp Dewpoint Dewpoint Depression Visibility Wind Speed Wind Dir Waves Ship Positions

Caribbean Ferry

Owner: Cross Sound Ferry Services,Inc., New London, CT. More information available from US FCC via Universal Licensing System and Coast Guard Vessel Documentation Center.

Last reported at 2018-Jun-17 20:53 UTC. Time now 2018-Jun-18 11:30 UTC.
Position N 41°10' W 072°13'.

Length 36 m; draft 1.8 m.

Type: Passenger vessel. MMSI: 367130960.

Date/timePositionNaut miles runAvg speedWind from/ knotsBaromVisibWave heightAir tempDewpointWater temp
2018-Jun-17 20:53N 41°10' W 072°13'4 9.5
2018-Jun-17 20:26N 41°13' W 072°11'2 0.6
2018-Jun-17 17:49N 41°12' W 072°12'3 2.4
2018-Jun-17 16:43N 41°10' W 072°13'210.0
2018-Jun-17 16:29N 41°12' W 072°13'0 0.1
2018-Jun-17 12:36N 41°12' W 072°13'3 0.2
2018-Jun-16 22:02N 41°14' W 072°09'113.8
2018-Jun-16 22:00N 41°13' W 072°10'2 1.9
2018-Jun-16 20:42N 41°11' W 072°12'2 8.6
2018-Jun-16 20:27N 41°13' W 072°10'1 0.4
2018-Jun-16 18:06N 41°14' W 072°09'4 3.1
2018-Jun-16 16:41N 41°11' W 072°13'210.8
2018-Jun-16 16:30N 41°12' W 072°12'1 0.2
2018-Jun-16 12:37N 41°12' W 072°12'110.6
2018-Jun-16 12:30N 41°13' W 072°12'1 0.1
2018-Jun-15 20:41N 41°12' W 072°13'2 8.9
2018-Jun-15 20:26N 41°13' W 072°11'1 0.2
2018-Jun-15 12:27N 41°12' W 072°12'1 0.0
2018-Jun-14 20:40N 41°12' W 072°12'2 9.0
2018-Jun-14 20:25N 41°13' W 072°10'2 0.6
2018-Jun-14 16:35N 41°12' W 072°12'210.7
2018-Jun-14 16:24N 41°13' W 072°11'2 0.4
2018-Jun-14 12:30N 41°12' W 072°12'  
2018-Jun-10 20:19N 41°12' W 072°12'1 0.1
2018-Jun-10 12:29N 41°13' W 072°12'  

Dump ship's entire track history